sensor_id;sensor_type;location;lat;lon;timestamp;pressure;altitude;pressure_sealevel;temperature;humidity
58690;BME280;44470;53.206;-6.106;2023-09-19T00:01:28;100135.34;;;20.09;63.40
58690;BME280;44470;53.206;-6.106;2023-09-19T00:03:55;100135.34;;;20.09;63.38
58690;BME280;44470;53.206;-6.106;2023-09-19T00:06:22;100085.44;;;19.79;63.28
58690;BME280;44470;53.206;-6.106;2023-09-19T00:08:51;100127.34;;;20.07;63.13
58690;BME280;44470;53.206;-6.106;2023-09-19T00:11:16;100134.44;;;20.08;63.14
58690;BME280;44470;53.206;-6.106;2023-09-19T00:13:41;100136.25;;;20.08;63.32
58690;BME280;44470;53.206;-6.106;2023-09-19T00:16:09;100137.13;;;20.08;63.46
58690;BME280;44470;53.206;-6.106;2023-09-19T00:18:36;100135.38;;;20.07;63.38
58690;BME280;44470;53.206;-6.106;2023-09-19T00:21:02;100132.69;;;20.07;63.09
58690;BME280;44470;53.206;-6.106;2023-09-19T00:23:29;100140.66;;;20.09;63.30
58690;BME280;44470;53.206;-6.106;2023-09-19T00:25:59;100127.34;;;20.07;63.04
58690;BME280;44470;53.206;-6.106;2023-09-19T00:28:26;100135.38;;;20.07;62.96
58690;BME280;44470;53.206;-6.106;2023-09-19T00:30:52;100145.13;;;20.08;63.11
58690;BME280;44470;53.206;-6.106;2023-09-19T00:33:20;100134.50;;;20.07;62.97
58690;BME280;44470;53.206;-6.106;2023-09-19T00:38:14;100135.41;;;20.06;62.80
58690;BME280;44470;53.206;-6.106;2023-09-19T00:40:44;100121.28;;;20.02;62.77
58690;BME280;44470;53.206;-6.106;2023-09-19T00:43:09;100118.50;;;20.05;62.95
58690;BME280;44470;53.206;-6.106;2023-09-19T00:45:35;100116.66;;;20.07;62.93
58690;BME280;44470;53.206;-6.106;2023-09-19T00:48:01;100115.81;;;20.07;62.84
58690;BME280;44470;53.206;-6.106;2023-09-19T00:50:28;100110.47;;;20.07;62.88
58690;BME280;44470;53.206;-6.106;2023-09-19T00:52:54;100110.47;;;20.07;62.99
58690;BME280;44470;53.206;-6.106;2023-09-19T00:55:23;100103.31;;;20.07;63.05
58690;BME280;44470;53.206;-6.106;2023-09-19T00:57:49;100100.63;;;20.07;63.02
58690;BME280;44470;53.206;-6.106;2023-09-19T01:00:15;100100.63;;;20.07;62.86
58690;BME280;44470;53.206;-6.106;2023-09-19T01:02:42;100100.63;;;20.07;63.16
58690;BME280;44470;53.206;-6.106;2023-09-19T01:05:12;100089.94;;;20.07;63.12
58690;BME280;44470;53.206;-6.106;2023-09-19T01:07:41;100081.94;;;20.07;63.17
58690;BME280;44470;53.206;-6.106;2023-09-19T01:10:27;100073.91;;;20.07;63.09
58690;BME280;44470;53.206;-6.106;2023-09-19T01:15:40;100066.78;;;20.08;63.07
58690;BME280;44470;53.206;-6.106;2023-09-19T01:18:13;100071.25;;;20.07;63.17
58690;BME280;44470;53.206;-6.106;2023-09-19T01:20:46;100063.22;;;20.07;63.40
58690;BME280;44470;53.206;-6.106;2023-09-19T01:29:03;100031.19;;;20.07;63.71
58690;BME280;44470;53.206;-6.106;2023-09-19T01:31:38;100019.78;;;20.02;63.66
58690;BME280;44470;53.206;-6.106;2023-09-19T01:34:05;100017.81;;;20.07;63.60
58690;BME280;44470;53.206;-6.106;2023-09-19T01:36:34;100002.69;;;20.08;63.73
58690;BME280;44470;53.206;-6.106;2023-09-19T01:39:02;100005.34;;;20.08;63.80
58690;BME280;44470;53.206;-6.106;2023-09-19T01:41:36;100004.47;;;20.07;63.84
58690;BME280;44470;53.206;-6.106;2023-09-19T01:44:03;99994.66;;;20.08;63.92
58690;BME280;44470;53.206;-6.106;2023-09-19T01:46:33;99988.44;;;20.07;63.88
58690;BME280;44470;53.206;-6.106;2023-09-19T01:54:12;99955.53;;;20.07;63.77
58690;BME280;44470;53.206;-6.106;2023-09-19T01:56:40;99947.44;;;20.08;63.76
58690;BME280;44470;53.206;-6.106;2023-09-19T01:59:09;99945.69;;;20.07;64.01
58690;BME280;44470;53.206;-6.106;2023-09-19T02:01:36;99935.00;;;20.07;63.86
58690;BME280;44470;53.206;-6.106;2023-09-19T02:04:03;99925.22;;;20.08;63.93
58690;BME280;44470;53.206;-6.106;2023-09-19T02:06:30;99913.66;;;20.07;64.00
58690;BME280;44470;53.206;-6.106;2023-09-19T02:08:56;99904.81;;;20.05;64.20
58690;BME280;44470;53.206;-6.106;2023-09-19T02:11:22;99904.72;;;20.08;64.09
58690;BME280;44470;53.206;-6.106;2023-09-19T02:13:47;99888.75;;;20.07;63.98
58690;BME280;44470;53.206;-6.106;2023-09-19T02:16:16;99888.78;;;20.05;64.10
58690;BME280;44470;53.206;-6.106;2023-09-19T02:18:42;99892.28;;;20.07;64.09
58690;BME280;44470;53.206;-6.106;2023-09-19T02:21:07;99884.25;;;20.07;64.16
58690;BME280;44470;53.206;-6.106;2023-09-19T02:23:35;99879.84;;;20.06;63.99
58690;BME280;44470;53.206;-6.106;2023-09-19T02:26:01;99876.25;;;20.07;63.95
58690;BME280;44470;53.206;-6.106;2023-09-19T02:28:26;99864.72;;;20.07;64.23
58690;BME280;44470;53.206;-6.106;2023-09-19T02:30:56;99857.63;;;20.06;64.13
58690;BME280;44470;53.206;-6.106;2023-09-19T02:33:21;99857.56;;;20.07;63.85
58690;BME280;44470;53.206;-6.106;2023-09-19T02:35:49;99862.91;;;20.07;64.13
58690;BME280;44470;53.206;-6.106;2023-09-19T02:38:15;99846.00;;;20.07;64.14
58690;BME280;44470;53.206;-6.106;2023-09-19T02:40:46;99831.75;;;20.06;64.44
58690;BME280;44470;53.206;-6.106;2023-09-19T02:43:11;99821.97;;;20.07;64.07
58690;BME280;44470;53.206;-6.106;2023-09-19T02:45:37;99813.97;;;20.07;63.96
58690;BME280;44470;53.206;-6.106;2023-09-19T02:48:02;99797.97;;;20.05;64.23
58690;BME280;44470;53.206;-6.106;2023-09-19T02:50:28;99789.13;;;20.03;64.02
58690;BME280;44470;53.206;-6.106;2023-09-19T02:52:56;99778.31;;;20.08;63.98
58690;BME280;44470;53.206;-6.106;2023-09-19T02:55:21;99761.47;;;20.06;64.16
58690;BME280;44470;53.206;-6.106;2023-09-19T02:57:50;99747.22;;;20.05;64.37
58690;BME280;44470;53.206;-6.106;2023-09-19T03:00:16;99734.75;;;20.06;64.26
58690;BME280;44470;53.206;-6.106;2023-09-19T03:02:47;99736.53;;;20.05;64.29
58690;BME280;44470;53.206;-6.106;2023-09-19T03:05:13;99723.19;;;20.05;64.02
58690;BME280;44470;53.206;-6.106;2023-09-19T03:07:38;99713.38;;;20.06;64.02
58690;BME280;44470;53.206;-6.106;2023-09-19T03:10:05;99693.78;;;20.05;64.22
58690;BME280;44470;53.206;-6.106;2023-09-19T03:12:31;99678.59;;;20.07;64.20
58690;BME280;44470;53.206;-6.106;2023-09-19T03:14:58;99683.06;;;20.07;64.01
58690;BME280;44470;53.206;-6.106;2023-09-19T03:17:25;99678.66;;;20.06;64.25
58690;BME280;44470;53.206;-6.106;2023-09-19T03:19:50;99669.75;;;20.05;64.15
58690;BME280;44470;53.206;-6.106;2023-09-19T03:22:16;99659.06;;;20.05;64.42
58690;BME280;44470;53.206;-6.106;2023-09-19T03:24:41;99647.53;;;20.04;64.32
58690;BME280;44470;53.206;-6.106;2023-09-19T03:27:09;99627.03;;;20.05;64.20
58690;BME280;44470;53.206;-6.106;2023-09-19T03:29:35;99620.81;;;20.04;64.47
58690;BME280;44470;53.206;-6.106;2023-09-19T03:32:01;99586.50;;;19.94;64.34
58690;BME280;44470;53.206;-6.106;2023-09-19T03:34:26;99584.28;;;20.05;64.13
58690;BME280;44470;53.206;-6.106;2023-09-19T03:36:52;99584.28;;;20.05;64.20
58690;BME280;44470;53.206;-6.106;2023-09-19T03:39:17;99573.59;;;20.05;64.33
58690;BME280;44470;53.206;-6.106;2023-09-19T03:41:43;99553.16;;;20.04;64.17
58690;BME280;44470;53.206;-6.106;2023-09-19T03:44:09;99557.59;;;20.05;64.16
58690;BME280;44470;53.206;-6.106;2023-09-19T03:46:34;99539.78;;;20.06;64.37
58690;BME280;44470;53.206;-6.106;2023-09-19T03:49:01;99533.53;;;20.05;64.29
58690;BME280;44470;53.206;-6.106;2023-09-19T03:51:26;99520.19;;;20.05;64.18
58690;BME280;44470;53.206;-6.106;2023-09-19T03:53:52;99529.13;;;20.04;64.58
58690;BME280;44470;53.206;-6.106;2023-09-19T03:56:17;99510.38;;;20.06;64.54
58690;BME280;44470;53.206;-6.106;2023-09-19T03:58:43;99504.16;;;20.05;64.61
58690;BME280;44470;53.206;-6.106;2023-09-19T04:01:08;99498.81;;;20.05;64.47
58690;BME280;44470;53.206;-6.106;2023-09-19T04:03:34;99482.78;;;20.05;64.31
58690;BME280;44470;53.206;-6.106;2023-09-19T04:06:15;99455.75;;;19.92;64.67
58690;BME280;44470;53.206;-6.106;2023-09-19T04:08:41;99471.19;;;20.06;64.48
58690;BME280;44470;53.206;-6.106;2023-09-19T04:11:06;99449.91;;;20.04;64.38
58690;BME280;44470;53.206;-6.106;2023-09-19T04:13:32;99432.06;;;20.05;64.40
58690;BME280;44470;53.206;-6.106;2023-09-19T04:15:57;99413.34;;;20.05;64.45
58690;BME280;44470;53.206;-6.106;2023-09-19T04:18:23;99414.28;;;20.04;64.76
58690;BME280;44470;53.206;-6.106;2023-09-19T04:20:49;99413.34;;;20.05;64.86
58690;BME280;44470;53.206;-6.106;2023-09-19T04:23:15;99401.81;;;20.04;64.58
58690;BME280;44470;53.206;-6.106;2023-09-19T04:25:40;99392.00;;;20.05;64.87
58690;BME280;44470;53.206;-6.106;2023-09-19T04:28:06;99380.47;;;20.04;64.64
58690;BME280;44470;53.206;-6.106;2023-09-19T04:30:31;99367.28;;;20.00;65.06
58690;BME280;44470;53.206;-6.106;2023-09-19T04:32:56;99370.63;;;20.05;64.99
58690;BME280;44470;53.206;-6.106;2023-09-19T04:35:22;99361.81;;;20.03;64.97
58690;BME280;44470;53.206;-6.106;2023-09-19T04:37:47;99360.81;;;20.06;64.85
58690;BME280;44470;53.206;-6.106;2023-09-19T04:40:13;99359.22;;;20.01;65.04
58690;BME280;44470;53.206;-6.106;2023-09-19T04:42:45;99351.94;;;20.05;65.05
58690;BME280;44470;53.206;-6.106;2023-09-19T04:45:11;99346.66;;;20.03;65.09
58690;BME280;44470;53.206;-6.106;2023-09-19T04:47:37;99344.81;;;20.06;64.91
58690;BME280;44470;53.206;-6.106;2023-09-19T04:50:13;99346.66;;;20.03;65.29
58690;BME280;44470;53.206;-6.106;2023-09-19T04:52:41;99342.19;;;20.04;64.96
58690;BME280;44470;53.206;-6.106;2023-09-19T04:55:17;99327.97;;;20.03;65.07
58690;BME280;44470;53.206;-6.106;2023-09-19T04:57:46;99331.50;;;20.04;65.30
58690;BME280;44470;53.206;-6.106;2023-09-19T05:00:16;99320.81;;;20.04;65.15
58690;BME280;44470;53.206;-6.106;2023-09-19T05:02:44;99327.91;;;20.05;65.33
58690;BME280;44470;53.206;-6.106;2023-09-19T05:05:10;99327.03;;;20.04;65.14
58690;BME280;44470;53.206;-6.106;2023-09-19T05:07:40;99305.81;;;20.01;65.37
58690;BME280;44470;53.206;-6.106;2023-09-19T05:10:06;99313.69;;;20.04;65.46
58690;BME280;44470;53.206;-6.106;2023-09-19T05:12:33;99306.53;;;20.05;65.31
58690;BME280;44470;53.206;-6.106;2023-09-19T05:14:59;99286.97;;;20.04;65.36
58690;BME280;44470;53.206;-6.106;2023-09-19T05:17:24;99285.16;;;20.05;65.21
58690;BME280;44470;53.206;-6.106;2023-09-19T05:19:50;99295.94;;;20.03;65.22
58690;BME280;44470;53.206;-6.106;2023-09-19T05:22:15;99301.19;;;20.05;65.14
58690;BME280;44470;53.206;-6.106;2023-09-19T05:24:40;99287.03;;;20.03;65.18
58690;BME280;44470;53.206;-6.106;2023-09-19T05:27:06;99286.09;;;20.04;65.43
58690;BME280;44470;53.206;-6.106;2023-09-19T05:29:32;99279.03;;;20.03;65.61
58690;BME280;44470;53.206;-6.106;2023-09-19T05:31:58;99278.97;;;20.04;65.28
58690;BME280;44470;53.206;-6.106;2023-09-19T05:34:24;99273.63;;;20.04;65.28
58690;BME280;44470;53.206;-6.106;2023-09-19T05:36:55;99272.75;;;20.04;65.60
58690;BME280;44470;53.206;-6.106;2023-09-19T05:39:20;99271.88;;;20.03;65.59
58690;BME280;44470;53.206;-6.106;2023-09-19T05:41:46;99283.50;;;20.02;65.29
58690;BME280;44470;53.206;-6.106;2023-09-19T05:44:13;99269.22;;;20.03;65.40
58690;BME280;44470;53.206;-6.106;2023-09-19T05:46:39;99272.75;;;20.04;65.67
58690;BME280;44470;53.206;-6.106;2023-09-19T05:49:04;99274.47;;;20.05;65.33
58690;BME280;44470;53.206;-6.106;2023-09-19T05:51:30;99272.75;;;20.04;65.42
58690;BME280;44470;53.206;-6.106;2023-09-19T05:53:55;99259.38;;;20.04;65.61
58690;BME280;44470;53.206;-6.106;2023-09-19T05:56:21;99258.53;;;20.03;65.55
58690;BME280;44470;53.206;-6.106;2023-09-19T05:58:46;99230.00;;;20.04;65.56
58690;BME280;44470;53.206;-6.106;2023-09-19T06:01:12;99214.00;;;20.04;65.45
58690;BME280;44470;53.206;-6.106;2023-09-19T06:03:38;99227.34;;;20.04;65.67
58690;BME280;44470;53.206;-6.106;2023-09-19T06:06:03;99221.06;;;20.05;65.38
58690;BME280;44470;53.206;-6.106;2023-09-19T06:08:31;99208.78;;;20.01;65.67
58690;BME280;44470;53.206;-6.106;2023-09-19T06:10:57;99218.47;;;20.03;65.48
58690;BME280;44470;53.206;-6.106;2023-09-19T06:13:22;99224.66;;;20.04;65.71
58690;BME280;44470;53.206;-6.106;2023-09-19T06:15:50;99230.00;;;20.04;65.51
58690;BME280;44470;53.206;-6.106;2023-09-19T06:18:16;99218.47;;;20.03;65.82
58690;BME280;44470;53.206;-6.106;2023-09-19T06:20:48;99236.25;;;20.04;65.57
58690;BME280;44470;53.206;-6.106;2023-09-19T06:23:16;99218.41;;;20.05;65.53
58690;BME280;44470;53.206;-6.106;2023-09-19T06:25:41;99228.41;;;20.00;65.51
58690;BME280;44470;53.206;-6.106;2023-09-19T06:28:08;99214.00;;;20.04;65.60
58690;BME280;44470;53.206;-6.106;2023-09-19T06:30:37;99219.34;;;20.04;65.76
58690;BME280;44470;53.206;-6.106;2023-09-19T06:33:05;99207.72;;;20.05;65.66
58690;BME280;44470;53.206;-6.106;2023-09-19T06:35:31;99230.91;;;20.04;65.85
58690;BME280;44470;53.206;-6.106;2023-09-19T06:37:58;99230.00;;;20.04;65.53
58690;BME280;44470;53.206;-6.106;2023-09-19T06:40:23;99230.00;;;20.04;65.56
58690;BME280;44470;53.206;-6.106;2023-09-19T06:42:52;99217.47;;;20.06;65.59
58690;BME280;44470;53.206;-6.106;2023-09-19T06:45:19;99210.38;;;20.05;65.61
58690;BME280;44470;53.206;-6.106;2023-09-19T06:47:47;99215.72;;;20.05;65.77
58690;BME280;44470;53.206;-6.106;2023-09-19T06:50:15;99218.41;;;20.05;66.11
58690;BME280;44470;53.206;-6.106;2023-09-19T06:52:44;99223.72;;;20.05;65.97
58690;BME280;44470;53.206;-6.106;2023-09-19T06:55:11;99232.53;;;20.07;65.89
58690;BME280;44470;53.206;-6.106;2023-09-19T06:57:38;99229.06;;;20.05;65.97
58690;BME280;44470;53.206;-6.106;2023-09-19T07:00:06;99208.66;;;20.04;66.37
58690;BME280;44470;53.206;-6.106;2023-09-19T07:02:34;99221.06;;;20.05;66.15
58690;BME280;44470;53.206;-6.106;2023-09-19T07:05:00;99215.72;;;20.05;66.30
58690;BME280;44470;53.206;-6.106;2023-09-19T07:07:25;99245.97;;;20.06;66.33
58690;BME280;44470;53.206;-6.106;2023-09-19T07:09:51;99237.03;;;20.07;66.48
58690;BME280;44470;53.206;-6.106;2023-09-19T07:12:18;99237.97;;;20.06;66.24
58690;BME280;44470;53.206;-6.106;2023-09-19T07:14:44;99256.66;;;20.06;66.44
58690;BME280;44470;53.206;-6.106;2023-09-19T07:17:10;99253.13;;;20.05;66.12
58690;BME280;44470;53.206;-6.106;2023-09-19T07:19:35;99256.66;;;20.06;66.34
58690;BME280;44470;53.206;-6.106;2023-09-19T07:22:00;99254.00;;;20.06;66.14
58690;BME280;44470;53.206;-6.106;2023-09-19T07:24:27;99261.06;;;20.07;66.31
58690;BME280;44470;53.206;-6.106;2023-09-19T07:26:54;99270.03;;;20.06;66.20
58690;BME280;44470;53.206;-6.106;2023-09-19T07:29:19;99270.03;;;20.06;66.54
58690;BME280;44470;53.206;-6.106;2023-09-19T07:31:44;99277.16;;;20.05;66.22
58690;BME280;44470;53.206;-6.106;2023-09-19T07:34:12;99274.47;;;20.05;66.41
58690;BME280;44470;53.206;-6.106;2023-09-19T07:36:39;99280.69;;;20.06;66.18
58690;BME280;44470;53.206;-6.106;2023-09-19T07:39:06;99291.38;;;20.06;66.50
58690;BME280;44470;53.206;-6.106;2023-09-19T07:41:32;99310.00;;;20.07;66.60
58690;BME280;44470;53.206;-6.106;2023-09-19T07:43:57;99302.06;;;20.06;66.58
58690;BME280;44470;53.206;-6.106;2023-09-19T07:46:23;99309.16;;;20.07;66.61
58690;BME280;44470;53.206;-6.106;2023-09-19T07:48:49;99305.59;;;20.06;66.55
58690;BME280;44470;53.206;-6.106;2023-09-19T07:51:15;99311.88;;;20.05;66.71
58690;BME280;44470;53.206;-6.106;2023-09-19T07:53:41;99312.75;;;20.06;66.40
58690;BME280;44470;53.206;-6.106;2023-09-19T07:56:07;99318.09;;;20.06;66.62
58690;BME280;44470;53.206;-6.106;2023-09-19T07:58:34;99320.38;;;19.94;66.42
58690;BME280;44470;53.206;-6.106;2023-09-19T08:01:03;99337.63;;;20.06;66.63
58690;BME280;44470;53.206;-6.106;2023-09-19T08:03:29;99332.38;;;20.04;66.49
58690;BME280;44470;53.206;-6.106;2023-09-19T08:05:56;99311.47;;;19.94;66.48
58690;BME280;44470;53.206;-6.106;2023-09-19T08:08:22;99354.59;;;20.05;66.66
58690;BME280;44470;53.206;-6.106;2023-09-19T08:10:52;99349.25;;;20.05;66.79
58690;BME280;44470;53.206;-6.106;2023-09-19T08:13:18;99347.38;;;20.07;66.57
58690;BME280;44470;53.206;-6.106;2023-09-19T08:15:43;99349.22;;;20.07;66.73
58690;BME280;44470;53.206;-6.106;2023-09-19T08:18:09;99352.72;;;20.07;66.56
58690;BME280;44470;53.206;-6.106;2023-09-19T08:20:37;99345.66;;;20.06;66.75
58690;BME280;44470;53.206;-6.106;2023-09-19T08:23:03;99346.53;;;20.07;66.57
58690;BME280;44470;53.206;-6.106;2023-09-19T08:25:29;99355.41;;;20.07;66.65
58690;BME280;44470;53.206;-6.106;2023-09-19T08:27:54;99363.41;;;20.07;66.74
58690;BME280;44470;53.206;-6.106;2023-09-19T08:30:23;99357.22;;;20.07;66.93
58690;BME280;44470;53.206;-6.106;2023-09-19T08:32:58;99372.31;;;20.08;66.44
58690;BME280;44470;53.206;-6.106;2023-09-19T08:35:24;99369.63;;;20.08;66.60
58690;BME280;44470;53.206;-6.106;2023-09-19T08:37:49;99366.97;;;20.08;66.54
58690;BME280;44470;53.206;-6.106;2023-09-19T08:40:16;99364.28;;;20.08;66.75
58690;BME280;44470;53.206;-6.106;2023-09-19T08:42:48;99362.47;;;20.08;66.64
58690;BME280;44470;53.206;-6.106;2023-09-19T08:45:14;99371.44;;;20.07;66.78
58690;BME280;44470;53.206;-6.106;2023-09-19T08:47:43;99373.25;;;20.07;66.56
58690;BME280;44470;53.206;-6.106;2023-09-19T08:50:11;99381.19;;;20.08;66.89
58690;BME280;44470;53.206;-6.106;2023-09-19T08:52:42;99384.78;;;20.07;66.70
58690;BME280;44470;53.206;-6.106;2023-09-19T08:55:10;99382.19;;;20.06;66.61
58690;BME280;44470;53.206;-6.106;2023-09-19T08:57:37;99379.44;;;20.07;66.89
58690;BME280;44470;53.206;-6.106;2023-09-19T09:00:06;99389.19;;;20.08;66.81
58690;BME280;44470;53.206;-6.106;2023-09-19T09:02:37;99376.72;;;20.09;66.84
58690;BME280;44470;53.206;-6.106;2023-09-19T09:05:03;99385.59;;;20.09;66.52
58690;BME280;44470;53.206;-6.106;2023-09-19T09:07:31;99389.19;;;20.08;66.42
58690;BME280;44470;53.206;-6.106;2023-09-19T09:10:00;99396.28;;;20.09;66.80
58690;BME280;44470;53.206;-6.106;2023-09-19T09:12:25;99399.81;;;20.10;66.91
58690;BME280;44470;53.206;-6.106;2023-09-19T09:14:51;99409.63;;;20.09;66.85
58690;BME280;44470;53.206;-6.106;2023-09-19T09:17:17;99414.13;;;20.09;66.94
58690;BME280;44470;53.206;-6.106;2023-09-19T09:19:45;99405.22;;;20.08;66.92
58690;BME280;44470;53.206;-6.106;2023-09-19T09:22:11;99406.16;;;20.07;66.97
58690;BME280;44470;53.206;-6.106;2023-09-19T09:24:37;99417.72;;;20.08;66.63
58690;BME280;44470;53.206;-6.106;2023-09-19T09:27:15;99416.78;;;20.09;66.76
58690;BME280;44470;53.206;-6.106;2023-09-19T09:29:45;99422.94;;;20.11;66.95
58690;BME280;44470;53.206;-6.106;2023-09-19T09:32:29;99409.63;;;20.09;67.01
58690;BME280;44470;53.206;-6.106;2023-09-19T09:34:59;99414.97;;;20.09;66.89
58690;BME280;44470;53.206;-6.106;2023-09-19T09:37:25;99415.84;;;20.10;66.71
58690;BME280;44470;53.206;-6.106;2023-09-19T09:47:42;99411.44;;;20.09;66.78
58690;BME280;44470;53.206;-6.106;2023-09-19T09:50:23;99407.88;;;20.08;67.19
58690;BME280;44470;53.206;-6.106;2023-09-19T09:52:54;99410.56;;;20.08;66.88
58690;BME280;44470;53.206;-6.106;2023-09-19T09:55:26;99404.28;;;20.09;66.75
58690;BME280;44470;53.206;-6.106;2023-09-19T09:58:02;99407.88;;;20.08;67.12
58690;BME280;44470;53.206;-6.106;2023-09-19T10:00:51;99413.22;;;20.08;67.15
58690;BME280;44470;53.206;-6.106;2023-09-19T10:03:21;99407.03;;;20.08;67.17
58690;BME280;44470;53.206;-6.106;2023-09-19T10:05:46;99406.09;;;20.09;66.99
58690;BME280;44470;53.206;-6.106;2023-09-19T10:08:20;99414.13;;;20.09;66.88
58690;BME280;44470;53.206;-6.106;2023-09-19T10:10:46;99404.28;;;20.09;67.29
58690;BME280;44470;53.206;-6.106;2023-09-19T10:13:17;99408.78;;;20.09;67.15
58690;BME280;44470;53.206;-6.106;2023-09-19T10:15:50;99418.53;;;20.10;66.95
58690;BME280;44470;53.206;-6.106;2023-09-19T10:18:22;99398.94;;;20.09;67.31
58690;BME280;44470;53.206;-6.106;2023-09-19T10:20:48;99415.84;;;20.10;67.00
58690;BME280;44470;53.206;-6.106;2023-09-19T10:23:15;99410.56;;;20.08;67.15
58690;BME280;44470;53.206;-6.106;2023-09-19T10:25:47;99422.03;;;20.10;67.17
58690;BME280;44470;53.206;-6.106;2023-09-19T10:28:13;99420.31;;;20.09;67.05
58690;BME280;44470;53.206;-6.106;2023-09-19T10:30:43;99422.03;;;20.10;67.15
58690;BME280;44470;53.206;-6.106;2023-09-19T10:33:16;99431.88;;;20.10;67.43
58690;BME280;44470;53.206;-6.106;2023-09-19T10:35:43;99421.19;;;20.10;67.47
58690;BME280;44470;53.206;-6.106;2023-09-19T10:38:12;99411.44;;;20.09;67.31
58690;BME280;44470;53.206;-6.106;2023-09-19T10:40:38;99433.66;;;20.09;67.36
58690;BME280;44470;53.206;-6.106;2023-09-19T10:43:15;99426.53;;;20.10;67.12
58690;BME280;44470;53.206;-6.106;2023-09-19T10:45:45;99423.91;;;20.08;67.49
58690;BME280;44470;53.206;-6.106;2023-09-19T10:48:12;99431.00;;;20.09;67.36
58690;BME280;44470;53.206;-6.106;2023-09-19T10:50:49;99427.38;;;20.10;67.47
58690;BME280;44470;53.206;-6.106;2023-09-19T10:53:16;99422.97;;;20.09;67.43
58690;BME280;44470;53.206;-6.106;2023-09-19T10:55:48;99390.50;;;19.98;67.17
58690;BME280;44470;53.206;-6.106;2023-09-19T10:58:23;99408.91;;;20.06;67.54
58690;BME280;44470;53.206;-6.106;2023-09-19T11:00:50;99415.84;;;20.10;67.33
58690;BME280;44470;53.206;-6.106;2023-09-19T11:03:20;99400.75;;;20.09;67.30
58690;BME280;44470;53.206;-6.106;2023-09-19T11:06:34;99399.19;;;20.03;67.19
58690;BME280;44470;53.206;-6.106;2023-09-19T11:22:24;99437.13;;;20.11;67.67
58690;BME280;44470;53.206;-6.106;2023-09-19T11:24:51;99421.13;;;20.11;67.58
58690;BME280;44470;53.206;-6.106;2023-09-19T11:27:17;99430.06;;;20.10;67.67
58690;BME280;44470;53.206;-6.106;2023-09-19T11:29:43;99421.19;;;20.10;67.42
58690;BME280;44470;53.206;-6.106;2023-09-19T11:32:10;99417.59;;;20.11;67.78
58690;BME280;44470;53.206;-6.106;2023-09-19T11:34:42;99437.13;;;20.11;67.71
58690;BME280;44470;53.206;-6.106;2023-09-19T11:39:36;99431.78;;;20.11;67.59
58690;BME280;44470;53.206;-6.106;2023-09-19T11:42:40;99435.41;;;20.10;67.82
58690;BME280;44470;53.206;-6.106;2023-09-19T11:44:49;99443.41;;;20.10;67.60
58690;BME280;44470;53.206;-6.106;2023-09-19T11:47:17;99442.47;;;20.11;67.53
58690;BME280;44470;53.206;-6.106;2023-09-19T11:49:43;99437.22;;;20.10;67.93
58690;BME280;44470;53.206;-6.106;2023-09-19T11:52:09;99438.97;;;20.11;67.85
58690;BME280;44470;53.206;-6.106;2023-09-19T11:54:37;99450.50;;;20.11;67.96
58690;BME280;44470;53.206;-6.106;2023-09-19T11:57:06;99425.91;;;20.03;67.47
58690;BME280;44470;53.206;-6.106;2023-09-19T11:59:33;99454.06;;;20.12;67.57
58690;BME280;44470;53.206;-6.106;2023-09-19T12:02:04;99434.47;;;20.11;67.69
58690;BME280;44470;53.206;-6.106;2023-09-19T12:07:00;99444.28;;;20.11;67.56
58690;BME280;44470;53.206;-6.106;2023-09-19T12:09:26;99430.00;;;20.12;67.75
58690;BME280;44470;53.206;-6.106;2023-09-19T12:11:52;99439.81;;;20.11;67.95
58690;BME280;44470;53.206;-6.106;2023-09-19T12:14:21;99418.44;;;20.11;67.62
58690;BME280;44470;53.206;-6.106;2023-09-19T12:16:53;99402.69;;;20.05;68.06
58690;BME280;44470;53.206;-6.106;2023-09-19T12:19:20;99415.78;;;20.11;67.81
58690;BME280;44470;53.206;-6.106;2023-09-19T12:21:59;99427.38;;;20.10;68.01
58690;BME280;44470;53.206;-6.106;2023-09-19T12:24:29;99414.84;;;20.12;67.99
58690;BME280;44470;53.206;-6.106;2023-09-19T12:26:59;99409.56;;;20.11;67.78
58690;BME280;44470;53.206;-6.106;2023-09-19T12:29:26;99429.13;;;20.11;67.87
58690;BME280;44470;53.206;-6.106;2023-09-19T12:31:56;99419.31;;;20.12;67.88
58690;BME280;44470;53.206;-6.106;2023-09-19T12:34:28;99403.34;;;20.10;67.94
58690;BME280;44470;53.206;-6.106;2023-09-19T12:37:04;99405.09;;;20.11;67.88
58690;BME280;44470;53.206;-6.106;2023-09-19T12:39:40;99401.47;;;20.12;68.07
58690;BME280;44470;53.206;-6.106;2023-09-19T12:42:09;99405.88;;;20.13;68.08
58690;BME280;44470;53.206;-6.106;2023-09-19T12:44:36;99413.09;;;20.11;67.92
58690;BME280;44470;53.206;-6.106;2023-09-19T12:47:35;99394.88;;;20.00;67.75
58690;BME280;44470;53.206;-6.106;2023-09-19T12:52:40;99416.66;;;20.12;68.01
58690;BME280;44470;53.206;-6.106;2023-09-19T12:55:05;99431.78;;;20.11;68.06
58690;BME280;44470;53.206;-6.106;2023-09-19T12:57:36;99420.31;;;20.09;68.03
58690;BME280;44470;53.206;-6.106;2023-09-19T13:00:02;99417.50;;;20.12;68.17
58690;BME280;44470;53.206;-6.106;2023-09-19T13:02:27;99413.97;;;20.12;67.95
58690;BME280;44470;53.206;-6.106;2023-09-19T13:04:53;99421.13;;;20.11;67.95
58690;BME280;44470;53.206;-6.106;2023-09-19T13:10:04;99414.84;;;20.12;67.97
58690;BME280;44470;53.206;-6.106;2023-09-19T13:12:39;99425.53;;;20.12;67.93
58690;BME280;44470;53.206;-6.106;2023-09-19T13:15:09;99424.72;;;20.10;67.93
58690;BME280;44470;53.206;-6.106;2023-09-19T13:17:46;99428.19;;;20.12;68.06
58690;BME280;44470;53.206;-6.106;2023-09-19T13:20:23;99430.00;;;20.12;68.18
58690;BME280;44470;53.206;-6.106;2023-09-19T13:22:57;99430.94;;;20.11;68.21
58690;BME280;44470;53.206;-6.106;2023-09-19T13:25:31;99434.41;;;20.13;68.20
58690;BME280;44470;53.206;-6.106;2023-09-19T13:27:58;99432.72;;;20.10;67.97
58690;BME280;44470;53.206;-6.106;2023-09-19T13:30:25;99442.47;;;20.11;68.32
58690;BME280;44470;53.206;-6.106;2023-09-19T13:32:51;99445.09;;;20.13;67.98
58690;BME280;44470;53.206;-6.106;2023-09-19T13:35:18;99446.88;;;20.12;67.99
58690;BME280;44470;53.206;-6.106;2023-09-19T13:37:43;99446.88;;;20.12;68.05
58690;BME280;44470;53.206;-6.106;2023-09-19T13:40:12;99439.81;;;20.11;68.10